sensor_id;sensor_type;location;lat;lon;timestamp;P1;durP1;ratioP1;P2;durP2;ratioP2
46563;SDS011;32291;52.010;4.446;2023-04-02T00:02:47;17.85;;;14.15;;
46563;SDS011;32291;52.010;4.446;2023-04-02T00:03:23;15.55;;;13.55;;
46563;SDS011;32291;52.010;4.446;2023-04-02T00:04:24;16.80;;;14.85;;
46563;SDS011;32291;52.010;4.446;2023-04-02T00:07:36;16.63;;;15.00;;
46563;SDS011;32291;52.010;4.446;2023-04-02T00:08:37;16.85;;;14.95;;
46563;SDS011;32291;52.010;4.446;2023-04-02T00:09:40;17.00;;;15.07;;
46563;SDS011;32291;52.010;4.446;2023-04-02T00:10:47;20.33;;;16.40;;
46563;SDS011;32291;52.010;4.446;2023-04-02T00:11:54;16.70;;;14.27;;
46563;SDS011;32291;52.010;4.446;2023-04-02T00:15:18;15.57;;;14.07;;
46563;SDS011;32291;52.010;4.446;2023-04-02T00:16:21;16.00;;;14.40;;
46563;SDS011;32291;52.010;4.446;2023-04-02T00:17:24;17.15;;;13.98;;
46563;SDS011;32291;52.010;4.446;2023-04-02T00:18:26;16.42;;;14.70;;
46563;SDS011;32291;52.010;4.446;2023-04-02T00:19:50;15.30;;;13.73;;
46563;SDS011;32291;52.010;4.446;2023-04-02T00:22:27;17.60;;;14.10;;
46563;SDS011;32291;52.010;4.446;2023-04-02T00:23:34;16.98;;;13.57;;
46563;SDS011;32291;52.010;4.446;2023-04-02T00:24:40;18.70;;;15.02;;
46563;SDS011;32291;52.010;4.446;2023-04-02T00:25:43;15.77;;;14.10;;
46563;SDS011;32291;52.010;4.446;2023-04-02T00:26:50;17.65;;;14.52;;
46563;SDS011;32291;52.010;4.446;2023-04-02T00:27:54;17.58;;;14.10;;
46563;SDS011;32291;52.010;4.446;2023-04-02T00:28:59;17.58;;;14.82;;
46563;SDS011;32291;52.010;4.446;2023-04-02T00:30:05;17.80;;;15.27;;
46563;SDS011;32291;52.010;4.446;2023-04-02T00:31:08;16.83;;;15.02;;
46563;SDS011;32291;52.010;4.446;2023-04-02T00:32:14;18.65;;;14.80;;
46563;SDS011;32291;52.010;4.446;2023-04-02T00:33:26;16.40;;;14.63;;
46563;SDS011;32291;52.010;4.446;2023-04-02T00:34:32;16.27;;;13.95;;
46563;SDS011;32291;52.010;4.446;2023-04-02T00:35:37;18.08;;;15.38;;
46563;SDS011;32291;52.010;4.446;2023-04-02T00:36:40;15.98;;;14.27;;
46563;SDS011;32291;52.010;4.446;2023-04-02T00:37:44;16.63;;;13.27;;
46563;SDS011;32291;52.010;4.446;2023-04-02T00:38:46;15.95;;;14.05;;
46563;SDS011;32291;52.010;4.446;2023-04-02T00:40:22;16.42;;;14.43;;
46563;SDS011;32291;52.010;4.446;2023-04-02T00:41:30;17.92;;;13.98;;
46563;SDS011;32291;52.010;4.446;2023-04-02T00:42:37;20.58;;;15.52;;
46563;SDS011;32291;52.010;4.446;2023-04-02T00:43:41;16.38;;;14.68;;
46563;SDS011;32291;52.010;4.446;2023-04-02T00:44:47;17.23;;;14.25;;
46563;SDS011;32291;52.010;4.446;2023-04-02T00:45:53;16.95;;;14.48;;
46563;SDS011;32291;52.010;4.446;2023-04-02T00:47:42;18.30;;;14.95;;
46563;SDS011;32291;52.010;4.446;2023-04-02T00:48:43;18.33;;;16.13;;
46563;SDS011;32291;52.010;4.446;2023-04-02T00:51:31;18.92;;;14.75;;
46563;SDS011;32291;52.010;4.446;2023-04-02T00:52:56;19.33;;;15.07;;
46563;SDS011;32291;52.010;4.446;2023-04-02T00:54:01;20.23;;;15.65;;
46563;SDS011;32291;52.010;4.446;2023-04-02T00:56:29;16.98;;;15.35;;
46563;SDS011;32291;52.010;4.446;2023-04-02T00:57:42;18.05;;;14.00;;
46563;SDS011;32291;52.010;4.446;2023-04-02T00:58:49;19.17;;;13.93;;
46563;SDS011;32291;52.010;4.446;2023-04-02T01:00:13;18.23;;;13.88;;
46563;SDS011;32291;52.010;4.446;2023-04-02T01:01:35;15.90;;;13.68;;
46563;SDS011;32291;52.010;4.446;2023-04-02T01:02:42;17.40;;;13.38;;
46563;SDS011;32291;52.010;4.446;2023-04-02T01:04:04;14.90;;;13.10;;
46563;SDS011;32291;52.010;4.446;2023-04-02T01:06:17;15.10;;;13.50;;
46563;SDS011;32291;52.010;4.446;2023-04-02T01:07:22;21.65;;;14.10;;
46563;SDS011;32291;52.010;4.446;2023-04-02T01:09:02;17.65;;;13.32;;
46563;SDS011;32291;52.010;4.446;2023-04-02T01:12:06;16.85;;;12.75;;
46563;SDS011;32291;52.010;4.446;2023-04-02T01:13:16;14.02;;;12.52;;
46563;SDS011;32291;52.010;4.446;2023-04-02T01:14:44;14.75;;;13.05;;
46563;SDS011;32291;52.010;4.446;2023-04-02T01:18:44;13.20;;;11.75;;
46563;SDS011;32291;52.010;4.446;2023-04-02T01:20:18;13.90;;;12.27;;
46563;SDS011;32291;52.010;4.446;2023-04-02T01:23:41;13.68;;;11.65;;
46563;SDS011;32291;52.010;4.446;2023-04-02T01:24:54;17.80;;;12.02;;
46563;SDS011;32291;52.010;4.446;2023-04-02T01:27:28;16.63;;;12.18;;
46563;SDS011;32291;52.010;4.446;2023-04-02T01:28:46;12.70;;;11.40;;
46563;SDS011;32291;52.010;4.446;2023-04-02T01:29:56;17.38;;;12.10;;
46563;SDS011;32291;52.010;4.446;2023-04-02T01:31:01;14.73;;;12.50;;
46563;SDS011;32291;52.010;4.446;2023-04-02T01:32:08;14.00;;;12.60;;
46563;SDS011;32291;52.010;4.446;2023-04-02T01:33:14;13.15;;;11.52;;
46563;SDS011;32291;52.010;4.446;2023-04-02T01:34:17;14.50;;;11.98;;
46563;SDS011;32291;52.010;4.446;2023-04-02T01:35:23;12.82;;;11.63;;
46563;SDS011;32291;52.010;4.446;2023-04-02T01:36:49;13.43;;;11.32;;
46563;SDS011;32291;52.010;4.446;2023-04-02T01:38:05;12.93;;;11.07;;
46563;SDS011;32291;52.010;4.446;2023-04-02T01:41:50;12.07;;;10.35;;
46563;SDS011;32291;52.010;4.446;2023-04-02T01:44:48;13.30;;;11.30;;
46563;SDS011;32291;52.010;4.446;2023-04-02T01:45:52;14.07;;;11.07;;
46563;SDS011;32291;52.010;4.446;2023-04-02T01:46:56;13.32;;;11.73;;
46563;SDS011;32291;52.010;4.446;2023-04-02T01:48:01;12.10;;;10.45;;
46563;SDS011;32291;52.010;4.446;2023-04-02T01:49:13;13.00;;;10.85;;
46563;SDS011;32291;52.010;4.446;2023-04-02T01:50:26;14.98;;;11.50;;
46563;SDS011;32291;52.010;4.446;2023-04-02T01:51:39;15.63;;;11.55;;
46563;SDS011;32291;52.010;4.446;2023-04-02T01:52:45;12.13;;;10.55;;
46563;SDS011;32291;52.010;4.446;2023-04-02T01:53:52;14.50;;;11.43;;
46563;SDS011;32291;52.010;4.446;2023-04-02T01:54:56;12.98;;;11.60;;
46563;SDS011;32291;52.010;4.446;2023-04-02T01:55:59;12.65;;;11.35;;
46563;SDS011;32291;52.010;4.446;2023-04-02T01:57:04;12.35;;;11.05;;
46563;SDS011;32291;52.010;4.446;2023-04-02T01:58:08;12.32;;;10.75;;
46563;SDS011;32291;52.010;4.446;2023-04-02T01:59:13;13.45;;;12.05;;
46563;SDS011;32291;52.010;4.446;2023-04-02T02:00:20;12.30;;;11.10;;
46563;SDS011;32291;52.010;4.446;2023-04-02T02:01:27;14.13;;;11.00;;
46563;SDS011;32291;52.010;4.446;2023-04-02T02:02:46;13.00;;;11.25;;
46563;SDS011;32291;52.010;4.446;2023-04-02T02:03:51;13.35;;;10.63;;
46563;SDS011;32291;52.010;4.446;2023-04-02T02:04:54;12.32;;;11.05;;
46563;SDS011;32291;52.010;4.446;2023-04-02T02:05:56;11.45;;;10.35;;
46563;SDS011;32291;52.010;4.446;2023-04-02T02:06:59;10.60;;;9.50;;
46563;SDS011;32291;52.010;4.446;2023-04-02T02:08:03;11.43;;;10.32;;
46563;SDS011;32291;52.010;4.446;2023-04-02T02:09:19;13.75;;;10.35;;
46563;SDS011;32291;52.010;4.446;2023-04-02T02:10:33;11.00;;;9.90;;
46563;SDS011;32291;52.010;4.446;2023-04-02T02:11:39;10.98;;;9.85;;
46563;SDS011;32291;52.010;4.446;2023-04-02T02:12:42;11.65;;;9.27;;
46563;SDS011;32291;52.010;4.446;2023-04-02T02:13:54;11.38;;;10.23;;
46563;SDS011;32291;52.010;4.446;2023-04-02T02:14:59;11.23;;;10.02;;
46563;SDS011;32291;52.010;4.446;2023-04-02T02:16:02;10.63;;;9.52;;
46563;SDS011;32291;52.010;4.446;2023-04-02T02:17:04;11.32;;;9.77;;
46563;SDS011;32291;52.010;4.446;2023-04-02T02:18:13;11.10;;;10.00;;
46563;SDS011;32291;52.010;4.446;2023-04-02T02:19:27;10.75;;;9.65;;
46563;SDS011;32291;52.010;4.446;2023-04-02T02:20:40;14.10;;;10.27;;
46563;SDS011;32291;52.010;4.446;2023-04-02T02:21:43;9.95;;;8.98;;
46563;SDS011;32291;52.010;4.446;2023-04-02T02:22:52;10.77;;;9.75;;
46563;SDS011;32291;52.010;4.446;2023-04-02T02:23:56;11.00;;;9.88;;
46563;SDS011;32291;52.010;4.446;2023-04-02T02:24:59;12.27;;;9.93;;
46563;SDS011;32291;52.010;4.446;2023-04-02T02:26:05;11.07;;;8.85;;
46563;SDS011;32291;52.010;4.446;2023-04-02T02:28:28;10.57;;;9.52;;
46563;SDS011;32291;52.010;4.446;2023-04-02T02:29:36;11.07;;;9.80;;
46563;SDS011;32291;52.010;4.446;2023-04-02T02:30:45;11.30;;;9.43;;
46563;SDS011;32291;52.010;4.446;2023-04-02T02:32:03;11.02;;;9.93;;
46563;SDS011;32291;52.010;4.446;2023-04-02T02:34:31;11.48;;;9.70;;
46563;SDS011;32291;52.010;4.446;2023-04-02T02:35:42;11.48;;;10.27;;
46563;SDS011;32291;52.010;4.446;2023-04-02T02:37:16;10.50;;;9.27;;
46563;SDS011;32291;52.010;4.446;2023-04-02T02:40:15;11.30;;;9.90;;
46563;SDS011;32291;52.010;4.446;2023-04-02T02:41:29;11.38;;;9.95;;
46563;SDS011;32291;52.010;4.446;2023-04-02T02:42:48;12.63;;;9.70;;
46563;SDS011;32291;52.010;4.446;2023-04-02T02:45:11;11.93;;;9.45;;
46563;SDS011;32291;52.010;4.446;2023-04-02T02:46:19;11.52;;;9.10;;
46563;SDS011;32291;52.010;4.446;2023-04-02T02:47:26;10.80;;;9.13;;
46563;SDS011;32291;52.010;4.446;2023-04-02T02:48:35;10.18;;;8.20;;
46563;SDS011;32291;52.010;4.446;2023-04-02T02:49:41;9.52;;;8.48;;
46563;SDS011;32291;52.010;4.446;2023-04-02T02:50:49;10.02;;;9.13;;
46563;SDS011;32291;52.010;4.446;2023-04-02T02:53:16;9.57;;;8.40;;
46563;SDS011;32291;52.010;4.446;2023-04-02T02:54:23;11.77;;;9.05;;
46563;SDS011;32291;52.010;4.446;2023-04-02T02:55:34;9.23;;;8.32;;
46563;SDS011;32291;52.010;4.446;2023-04-02T02:56:39;9.32;;;8.40;;
46563;SDS011;32291;52.010;4.446;2023-04-02T02:57:52;10.77;;;9.70;;
46563;SDS011;32291;52.010;4.446;2023-04-02T02:59:18;10.65;;;9.63;;
46563;SDS011;32291;52.010;4.446;2023-04-02T03:00:22;12.52;;;9.25;;
46563;SDS011;32291;52.010;4.446;2023-04-02T03:01:26;11.18;;;9.40;;
46563;SDS011;32291;52.010;4.446;2023-04-02T03:02:30;14.73;;;9.50;;
46563;SDS011;32291;52.010;4.446;2023-04-02T03:03:38;10.45;;;9.00;;
46563;SDS011;32291;52.010;4.446;2023-04-02T03:04:40;10.85;;;9.75;;
46563;SDS011;32291;52.010;4.446;2023-04-02T03:05:56;10.52;;;9.50;;
46563;SDS011;32291;52.010;4.446;2023-04-02T03:07:05;10.52;;;9.48;;
46563;SDS011;32291;52.010;4.446;2023-04-02T03:08:12;12.65;;;10.52;;
46563;SDS011;32291;52.010;4.446;2023-04-02T03:09:44;13.00;;;11.20;;
46563;SDS011;32291;52.010;4.446;2023-04-02T03:14:34;11.07;;;9.60;;
46563;SDS011;32291;52.010;4.446;2023-04-02T03:15:52;10.65;;;9.45;;
46563;SDS011;32291;52.010;4.446;2023-04-02T03:17:18;10.63;;;9.48;;
46563;SDS011;32291;52.010;4.446;2023-04-02T03:21:43;11.20;;;9.93;;
46563;SDS011;32291;52.010;4.446;2023-04-02T03:22:57;13.95;;;9.98;;
46563;SDS011;32291;52.010;4.446;2023-04-02T03:24:18;11.68;;;9.93;;
46563;SDS011;32291;52.010;4.446;2023-04-02T03:25:43;11.25;;;9.75;;
46563;SDS011;32291;52.010;4.446;2023-04-02T03:27:08;12.68;;;9.68;;
46563;SDS011;32291;52.010;4.446;2023-04-02T03:28:29;13.25;;;9.68;;
46563;SDS011;32291;52.010;4.446;2023-04-02T03:29:39;12.02;;;10.27;;
46563;SDS011;32291;52.010;4.446;2023-04-02T03:31:12;10.90;;;9.48;;
46563;SDS011;32291;52.010;4.446;2023-04-02T03:32:27;11.75;;;10.45;;
46563;SDS011;32291;52.010;4.446;2023-04-02T03:33:35;11.73;;;10.23;;
46563;SDS011;32291;52.010;4.446;2023-04-02T03:35:03;15.90;;;10.00;;
46563;SDS011;32291;52.010;4.446;2023-04-02T03:36:32;11.35;;;9.65;;
46563;SDS011;32291;52.010;4.446;2023-04-02T03:37:59;10.63;;;9.38;;
46563;SDS011;32291;52.010;4.446;2023-04-02T03:40:24;11.52;;;10.32;;
46563;SDS011;32291;52.010;4.446;2023-04-02T03:41:59;11.50;;;10.32;;
46563;SDS011;32291;52.010;4.446;2023-04-02T03:43:18;13.52;;;10.65;;
46563;SDS011;32291;52.010;4.446;2023-04-02T03:45:45;12.02;;;10.80;;
46563;SDS011;32291;52.010;4.446;2023-04-02T03:47:04;12.30;;;10.38;;
46563;SDS011;32291;52.010;4.446;2023-04-02T03:48:40;11.80;;;9.88;;
46563;SDS011;32291;52.010;4.446;2023-04-02T03:50:06;13.15;;;10.70;;
46563;SDS011;32291;52.010;4.446;2023-04-02T03:51:50;12.60;;;11.10;;
46563;SDS011;32291;52.010;4.446;2023-04-02T03:53:24;11.18;;;10.00;;
46563;SDS011;32291;52.010;4.446;2023-04-02T03:54:29;14.77;;;10.68;;
46563;SDS011;32291;52.010;4.446;2023-04-02T03:55:33;11.70;;;10.43;;
46563;SDS011;32291;52.010;4.446;2023-04-02T03:56:38;12.57;;;11.25;;
46563;SDS011;32291;52.010;4.446;2023-04-02T04:00:39;12.15;;;10.80;;
46563;SDS011;32291;52.010;4.446;2023-04-02T04:03:48;11.48;;;10.02;;
46563;SDS011;32291;52.010;4.446;2023-04-02T04:04:57;11.18;;;10.07;;
46563;SDS011;32291;52.010;4.446;2023-04-02T04:06:04;13.82;;;10.70;;
46563;SDS011;32291;52.010;4.446;2023-04-02T04:07:22;12.10;;;10.82;;
46563;SDS011;32291;52.010;4.446;2023-04-02T04:08:36;12.63;;;10.50;;
46563;SDS011;32291;52.010;4.446;2023-04-02T04:09:54;11.93;;;10.40;;
46563;SDS011;32291;52.010;4.446;2023-04-02T04:11:01;11.65;;;10.45;;
46563;SDS011;32291;52.010;4.446;2023-04-02T04:12:18;11.10;;;10.00;;
46563;SDS011;32291;52.010;4.446;2023-04-02T04:13:30;12.07;;;10.88;;
46563;SDS011;32291;52.010;4.446;2023-04-02T04:14:51;11.45;;;10.27;;
46563;SDS011;32291;52.010;4.446;2023-04-02T04:16:03;11.27;;;10.05;;
46563;SDS011;32291;52.010;4.446;2023-04-02T04:17:16;12.30;;;11.13;;
46563;SDS011;32291;52.010;4.446;2023-04-02T04:18:39;12.48;;;11.18;;
46563;SDS011;32291;52.010;4.446;2023-04-02T04:19:53;11.38;;;10.30;;
46563;SDS011;32291;52.010;4.446;2023-04-02T04:21:14;12.02;;;10.90;;
46563;SDS011;32291;52.010;4.446;2023-04-02T04:22:38;11.07;;;9.85;;
46563;SDS011;32291;52.010;4.446;2023-04-02T04:23:40;11.18;;;10.07;;
46563;SDS011;32291;52.010;4.446;2023-04-02T04:24:51;12.13;;;10.68;;
46563;SDS011;32291;52.010;4.446;2023-04-02T04:25:59;13.32;;;11.93;;
46563;SDS011;32291;52.010;4.446;2023-04-02T04:27:21;14.18;;;11.77;;
46563;SDS011;32291;52.010;4.446;2023-04-02T04:30:27;12.60;;;11.30;;
46563;SDS011;32291;52.010;4.446;2023-04-02T04:32:56;12.52;;;11.05;;
46563;SDS011;32291;52.010;4.446;2023-04-02T04:34:12;12.02;;;10.88;;
46563;SDS011;32291;52.010;4.446;2023-04-02T04:35:31;13.30;;;10.88;;
46563;SDS011;32291;52.010;4.446;2023-04-02T04:36:40;13.05;;;11.63;;
46563;SDS011;32291;52.010;4.446;2023-04-02T04:37:55;12.88;;;10.85;;
46563;SDS011;32291;52.010;4.446;2023-04-02T04:39:05;12.65;;;11.38;;
46563;SDS011;32291;52.010;4.446;2023-04-02T04:40:17;11.93;;;10.45;;
46563;SDS011;32291;52.010;4.446;2023-04-02T04:41:34;12.40;;;10.93;;
46563;SDS011;32291;52.010;4.446;2023-04-02T04:42:39;13.13;;;11.75;;
46563;SDS011;32291;52.010;4.446;2023-04-02T04:43:48;12.93;;;11.75;;
46563;SDS011;32291;52.010;4.446;2023-04-02T04:45:15;11.75;;;10.55;;
46563;SDS011;32291;52.010;4.446;2023-04-02T04:47:42;11.95;;;10.52;;
46563;SDS011;32291;52.010;4.446;2023-04-02T04:48:58;11.82;;;10.55;;
46563;SDS011;32291;52.010;4.446;2023-04-02T04:50:57;11.80;;;10.68;;
46563;SDS011;32291;52.010;4.446;2023-04-02T04:52:23;12.00;;;10.02;;
46563;SDS011;32291;52.010;4.446;2023-04-02T04:53:30;11.57;;;10.38;;
46563;SDS011;32291;52.010;4.446;2023-04-02T04:54:35;14.48;;;10.23;;
46563;SDS011;32291;52.010;4.446;2023-04-02T04:55:43;11.25;;;10.02;;
46563;SDS011;32291;52.010;4.446;2023-04-02T04:56:49;10.32;;;9.40;;
46563;SDS011;32291;52.010;4.446;2023-04-02T04:59:40;11.02;;;9.77;;
46563;SDS011;32291;52.010;4.446;2023-04-02T05:01:06;10.65;;;9.48;;
46563;SDS011;32291;52.010;4.446;2023-04-02T05:02:46;9.68;;;8.68;;
46563;SDS011;32291;52.010;4.446;2023-04-02T05:04:11;9.48;;;8.55;;
46563;SDS011;32291;52.010;4.446;2023-04-02T05:05:39;9.98;;;9.05;;
46563;SDS011;32291;52.010;4.446;2023-04-02T05:06:44;9.70;;;8.90;;
46563;SDS011;32291;52.010;4.446;2023-04-02T05:07:50;10.80;;;9.82;;
46563;SDS011;32291;52.010;4.446;2023-04-02T05:09:02;9.55;;;8.73;;
46563;SDS011;32291;52.010;4.446;2023-04-02T05:10:39;9.98;;;8.98;;
46563;SDS011;32291;52.010;4.446;2023-04-02T05:12:17;10.30;;;8.95;;
46563;SDS011;32291;52.010;4.446;2023-04-02T05:13:46;10.50;;;9.40;;
46563;SDS011;32291;52.010;4.446;2023-04-02T05:14:59;9.68;;;8.68;;
46563;SDS011;32291;52.010;4.446;2023-04-02T05:19:40;10.68;;;9.27;;
46563;SDS011;32291;52.010;4.446;2023-04-02T05:23:28;9.73;;;7.80;;
46563;SDS011;32291;52.010;4.446;2023-04-02T05:26:04;11.32;;;8.40;;
46563;SDS011;32291;52.010;4.446;2023-04-02T05:27:47;9.73;;;8.73;;
46563;SDS011;32291;52.010;4.446;2023-04-02T05:29:08;9.80;;;8.77;;
46563;SDS011;32291;52.010;4.446;2023-04-02T05:31:37;10.65;;;9.57;;
46563;SDS011;32291;52.010;4.446;2023-04-02T05:32:52;9.65;;;8.55;;
46563;SDS011;32291;52.010;4.446;2023-04-02T05:34:08;9.90;;;9.07;;
46563;SDS011;32291;52.010;4.446;2023-04-02T05:35:13;9.30;;;8.50;;
46563;SDS011;32291;52.010;4.446;2023-04-02T05:36:26;9.43;;;8.52;;
46563;SDS011;32291;52.010;4.446;2023-04-02T05:37:30;10.32;;;8.70;;
46563;SDS011;32291;52.010;4.446;2023-04-02T05:38:33;8.82;;;8.02;;
46563;SDS011;32291;52.010;4.446;2023-04-02T05:39:39;9.25;;;8.27;;
46563;SDS011;32291;52.010;4.446;2023-04-02T05:40:45;9.43;;;8.45;;
46563;SDS011;32291;52.010;4.446;2023-04-02T05:41:59;10.10;;;8.70;;
46563;SDS011;32291;52.010;4.446;2023-04-02T05:43:08;9.75;;;8.75;;
46563;SDS011;32291;52.010;4.446;2023-04-02T05:44:30;10.02;;;9.00;;
46563;SDS011;32291;52.010;4.446;2023-04-02T05:45:37;9.38;;;8.45;;
46563;SDS011;32291;52.010;4.446;2023-04-02T05:46:45;11.02;;;8.95;;
46563;SDS011;32291;52.010;4.446;2023-04-02T05:47:56;9.88;;;9.02;;
46563;SDS011;32291;52.010;4.446;2023-04-02T05:49:03;11.07;;;8.90;;
46563;SDS011;32291;52.010;4.446;2023-04-02T05:50:24;10.15;;;9.23;;
46563;SDS011;32291;52.010;4.446;2023-04-02T05:51:44;10.73;;;9.68;;
46563;SDS011;32291;52.010;4.446;2023-04-02T05:52:51;11.32;;;9.85;;
46563;SDS011;32291;52.010;4.446;2023-04-02T05:54:04;11.90;;;9.48;;
46563;SDS011;32291;52.010;4.446;2023-04-02T05:58:53;10.02;;;9.02;;
46563;SDS011;32291;52.010;4.446;2023-04-02T06:00:05;11.25;;;9.15;;
46563;SDS011;32291;52.010;4.446;2023-04-02T06:01:19;14.88;;;9.02;;
46563;SDS011;32291;52.010;4.446;2023-04-02T06:02:50;11.30;;;8.38;;
46563;SDS011;32291;52.010;4.446;2023-04-02T06:05:42;11.27;;;8.40;;
46563;SDS011;32291;52.010;4.446;2023-04-02T06:08:15;9.60;;;7.88;;
46563;SDS011;32291;52.010;4.446;2023-04-02T06:10:27;10.18;;;8.00;;
46563;SDS011;32291;52.010;4.446;2023-04-02T06:11:40;9.63;;;8.18;;
46563;SDS011;32291;52.010;4.446;2023-04-02T06:13:02;8.55;;;7.53;;
46563;SDS011;32291;52.010;4.446;2023-04-02T06:14:15;8.45;;;6.75;;
46563;SDS011;32291;52.010;4.446;2023-04-02T06:15:18;8.77;;;7.18;;
46563;SDS011;32291;52.010;4.446;2023-04-02T06:16:25;9.27;;;7.47;;
46563;SDS011;32291;52.010;4.446;2023-04-02T06:17:33;8.73;;;6.90;;
46563;SDS011;32291;52.010;4.446;2023-04-02T06:19:21;7.38;;;6.63;;
46563;SDS011;32291;52.010;4.446;2023-04-02T06:20:33;7.40;;;6.60;;
46563;SDS011;32291;52.010;4.446;2023-04-02T06:21:39;7.05;;;6.35;;
46563;SDS011;32291;52.010;4.446;2023-04-02T06:23:00;8.80;;;6.82;;
46563;SDS011;32291;52.010;4.446;2023-04-02T06:24:20;7.40;;;6.70;;
46563;SDS011;32291;52.010;4.446;2023-04-02T06:26:54;8.43;;;6.28;;
46563;SDS011;32291;52.010;4.446;2023-04-02T06:28:07;7.72;;;6.93;;
46563;SDS011;32291;52.010;4.446;2023-04-02T06:29:29;9.07;;;5.93;;
46563;SDS011;32291;52.010;4.446;2023-04-02T06:30:39;8.02;;;6.53;;
46563;SDS011;32291;52.010;4.446;2023-04-02T06:31:44;6.82;;;6.13;;
46563;SDS011;32291;52.010;4.446;2023-04-02T06:33:01;6.20;;;5.60;;
46563;SDS011;32291;52.010;4.446;2023-04-02T06:34:05;7.90;;;6.50;;
46563;SDS011;32291;52.010;4.446;2023-04-02T06:35:16;7.07;;;6.38;;
46563;SDS011;32291;52.010;4.446;2023-04-02T06:36:18;8.63;;;6.13;;
46563;SDS011;32291;52.010;4.446;2023-04-02T06:37:23;6.35;;;5.75;;
46563;SDS011;32291;52.010;4.446;2023-04-02T06:38:38;7.57;;;6.18;;
46563;SDS011;32291;52.010;4.446;2023-04-02T06:39:41;6.22;;;5.57;;
46563;SDS011;32291;52.010;4.446;2023-04-02T06:40:43;7.97;;;5.68;;
46563;SDS011;32291;52.010;4.446;2023-04-02T06:41:55;6.32;;;5.57;;
46563;SDS011;32291;52.010;4.446;2023-04-02T06:44:35;6.72;;;5.97;;
46563;SDS011;32291;52.010;4.446;2023-04-02T06:45:39;6.35;;;5.50;;
46563;SDS011;32291;52.010;4.446;2023-04-02T06:46:46;6.93;;;5.50;;
46563;SDS011;32291;52.010;4.446;2023-04-02T06:47:54;5.75;;;5.25;;
46563;SDS011;32291;52.010;4.446;2023-04-02T06:49:16;6.07;;;5.32;;
46563;SDS011;32291;52.010;4.446;2023-04-02T06:52:12;5.80;;;5.10;;
46563;SDS011;32291;52.010;4.446;2023-04-02T06:53:26;7.22;;;5.15;;
46563;SDS011;32291;52.010;4.446;2023-04-02T06:54:39;6.63;;;4.90;;
46563;SDS011;32291;52.010;4.446;2023-04-02T06:55:45;6.05;;;5.25;;
46563;SDS011;32291;52.010;4.446;2023-04-02T06:56:53;6.13;;;4.80;;
46563;SDS011;32291;52.010;4.446;2023-04-02T06:57:56;7.10;;;4.22;;
46563;SDS011;32291;52.010;4.446;2023-04-02T06:58:58;6.18;;;4.68;;
46563;SDS011;32291;52.010;4.446;2023-04-02T07:00:00;7.93;;;4.65;;
46563;SDS011;32291;52.010;4.446;2023-04-02T07:01:02;5.20;;;4.13;;
46563;SDS011;32291;52.010;4.446;2023-04-02T07:02:11;7.47;;;5.00;;
46563;SDS011;32291;52.010;4.446;2023-04-02T07:03:35;5.90;;;4.90;;
46563;SDS011;32291;52.010;4.446;2023-04-02T07:04:37;5.75;;;4.55;;
46563;SDS011;32291;52.010;4.446;2023-04-02T07:05:38;6.28;;;4.72;;
46563;SDS011;32291;52.010;4.446;2023-04-02T07:06:41;5.72;;;4.78;;
46563;SDS011;32291;52.010;4.446;2023-04-02T07:07:44;4.82;;;4.35;;
46563;SDS011;32291;52.010;4.446;2023-04-02T07:08:46;5.97;;;4.53;;
46563;SDS011;32291;52.010;4.446;2023-04-02T07:09:48;5.75;;;4.50;;
46563;SDS011;32291;52.010;4.446;2023-04-02T07:10:50;5.18;;;4.43;;
46563;SDS011;32291;52.010;4.446;2023-04-02T07:11:52;5.45;;;4.22;;
46563;SDS011;32291;52.010;4.446;2023-04-02T07:12:54;4.70;;;4.03;;
46563;SDS011;32291;52.010;4.446;2023-04-02T07:13:55;6.88;;;4.57;;
46563;SDS011;32291;52.010;4.446;2023-04-02T07:14:57;7.30;;;4.00;;
46563;SDS011;32291;52.010;4.446;2023-04-02T07:15:59;5.93;;;4.20;;
46563;SDS011;32291;52.010;4.446;2023-04-02T07:17:00;5.60;;;4.25;;
46563;SDS011;32291;52.010;4.446;2023-04-02T07:18:02;5.07;;;4.45;;
46563;SDS011;32291;52.010;4.446;2023-04-02T07:19:05;5.15;;;4.32;;
46563;SDS011;32291;52.010;4.446;2023-04-02T07:20:25;5.65;;;4.13;;
46563;SDS011;32291;52.010;4.446;2023-04-02T07:21:32;5.93;;;4.05;;
46563;SDS011;32291;52.010;4.446;2023-04-02T07:22:34;4.82;;;4.10;;
46563;SDS011;32291;52.010;4.446;2023-04-02T07:23:36;5.03;;;4.18;;
46563;SDS011;32291;52.010;4.446;2023-04-02T07:24:38;8.13;;;4.80;;
46563;SDS011;32291;52.010;4.446;2023-04-02T07:25:40;4.00;;;3.60;;
46563;SDS011;32291;52.010;4.446;2023-04-02T07:26:42;6.18;;;4.15;;
46563;SDS011;32291;52.010;4.446;2023-04-02T07:27:44;5.13;;;4.63;;
46563;SDS011;32291;52.010;4.446;2023-04-02T07:28:46;6.35;;;4.03;;
46563;SDS011;32291;52.010;4.446;2023-04-02T07:29:48;5.72;;;3.65;;
46563;SDS011;32291;52.010;4.446;2023-04-02T07:30:52;4.88;;;4.30;;
46563;SDS011;32291;52.010;4.446;2023-04-02T07:31:56;6.45;;;4.85;;
46563;SDS011;32291;52.010;4.446;2023-04-02T07:32:58;5.47;;;3.95;;
46563;SDS011;32291;52.010;4.446;2023-04-02T07:34:00;4.93;;;3.80;;
46563;SDS011;32291;52.010;4.446;2023-04-02T07:35:01;6.00;;;4.60;;
46563;SDS011;32291;52.010;4.446;2023-04-02T07:36:04;5.30;;;3.83;;
46563;SDS011;32291;52.010;4.446;2023-04-02T07:37:06;5.20;;;4.35;;
46563;SDS011;32291;52.010;4.446;2023-04-02T07:38:14;5.80;;;4.60;;
46563;SDS011;32291;52.010;4.446;2023-04-02T07:39:16;6.15;;;4.10;;
46563;SDS011;32291;52.010;4.446;2023-04-02T07:40:18;4.82;;;3.75;;
46563;SDS011;32291;52.010;4.446;2023-04-02T07:41:22;5.40;;;4.03;;
46563;SDS011;32291;52.010;4.446;2023-04-02T07:42:24;4.32;;;3.92;;
46563;SDS011;32291;52.010;4.446;2023-04-02T07:43:26;4.35;;;3.95;;
46563;SDS011;32291;52.010;4.446;2023-04-02T07:44:28;6.82;;;3.90;;
46563;SDS011;32291;52.010;4.446;2023-04-02T07:45:31;4.72;;;3.97;;
46563;SDS011;32291;52.010;4.446;2023-04-02T07:46:33;5.35;;;3.90;;
46563;SDS011;32291;52.010;4.446;2023-04-02T07:47:35;6.00;;;3.55;;
46563;SDS011;32291;52.010;4.446;2023-04-02T07:48:36;7.07;;;4.13;;
46563;SDS011;32291;52.010;4.446;2023-04-02T07:49:38;5.10;;;3.50;;
46563;SDS011;32291;52.010;4.446;2023-04-02T07:50:40;4.22;;;3.80;;
46563;SDS011;32291;52.010;4.446;2023-04-02T07:51:42;3.90;;;3.50;;
46563;SDS011;32291;52.010;4.446;2023-04-02T07:52:44;6.63;;;3.40;;
46563;SDS011;32291;52.010;4.446;2023-04-02T07:53:46;5.47;;;3.63;;
46563;SDS011;32291;52.010;4.446;2023-04-02T07:54:55;5.20;;;3.65;;
46563;SDS011;32291;52.010;4.446;2023-04-02T07:55:57;5.07;;;3.70;;
46563;SDS011;32291;52.010;4.446;2023-04-02T07:57:02;4.40;;;3.65;;
46563;SDS011;32291;52.010;4.446;2023-04-02T07:58:04;5.15;;;3.78;;
46563;SDS011;32291;52.010;4.446;2023-04-02T07:59:06;3.80;;;3.40;;
46563;SDS011;32291;52.010;4.446;2023-04-02T08:00:08;4.57;;;3.55;;
46563;SDS011;32291;52.010;4.446;2023-04-02T08:01:19;4.75;;;3.72;;
46563;SDS011;32291;52.010;4.446;2023-04-02T08:02:25;5.40;;;3.30;;
46563;SDS011;32291;52.010;4.446;2023-04-02T08:03:26;4.43;;;3.25;;
46563;SDS011;32291;52.010;4.446;2023-04-02T08:04:29;5.88;;;3.83;;
46563;SDS011;32291;52.010;4.446;2023-04-02T08:05:31;6.50;;;3.30;;
46563;SDS011;32291;52.010;4.446;2023-04-02T08:06:33;6.95;;;3.70;;
46563;SDS011;32291;52.010;4.446;2023-04-02T08:07:34;3.45;;;3.08;;
46563;SDS011;32291;52.010;4.446;2023-04-02T08:08:36;3.95;;;3.40;;
46563;SDS011;32291;52.010;4.446;2023-04-02T08:09:39;4.88;;;3.03;;
46563;SDS011;32291;52.010;4.446;2023-04-02T08:10:41;3.97;;;3.33;;
46563;SDS011;32291;52.010;4.446;2023-04-02T08:11:42;4.65;;;3.30;;